Time;durP1;ratioP1;P1;durP2;ratioP2;P2;SDS_P1;SDS_P2;PMS_P1;PMS_P2;Temp;Humidity;BMP_temperature;BMP_pressure;BME280_temperature;BME280_humidity;BME280_pressure;Samples;Min_cycle;Max_cycle;Signal;HPM_P1;HPM_P2
2022/06/23 00:02:23;;;;;;;;;;;;;;;21.79;41.96;100074.34;4990856;28;8116;-78
2022/06/23 00:04:52;;;;;;;;;;;;;;;21.76;42.18;100067.38;4976149;28;8642;-78
2022/06/23 00:07:35;;;;;;;;;;;;;;;21.75;41.83;100060.44;4998515;28;7034;-78
2022/06/23 00:10:26;;;;;;;;;;;;;;;21.73;41.81;100056.97;4996960;28;8773;-78
2022/06/23 00:12:53;;;;;;;;;;;;;;;21.74;42.11;100063.03;5014380;28;8073;-78
2022/06/23 00:15:35;;;;;;;;;;;;;;;21.72;41.91;100059.59;5004248;28;9218;-78
2022/06/23 00:18:06;;;;;;;;;;;;;;;21.70;41.88;100056.13;5027568;28;8402;-78
2022/06/23 00:20:52;;;;;;;;;;;;;;;21.68;42.03;100056.13;5013700;28;6828;-78
2022/06/23 00:23:34;;;;;;;;;;;;;;;21.68;42.04;100060.44;4997563;28;8428;-79
2022/06/23 00:26:26;;;;;;;;;;;;;;;21.67;42.01;100062.19;4995031;28;6812;-79
2022/06/23 00:29:22;;;;;;;;;;;;;;;21.67;41.97;100066.50;5011649;28;6974;-79
2022/06/23 00:32:04;;;;;;;;;;;;;;;21.64;42.19;100062.19;5015407;28;6894;-79
2022/06/23 00:34:50;;;;;;;;;;;;;;;21.59;42.16;100066.53;5010757;28;6811;-79
2022/06/23 00:37:19;;;;;;;;;;;;;;;21.54;42.09;100068.31;4996282;28;6820;-79
2022/06/23 00:39:50;;;;;;;;;;;;;;;21.49;42.43;100055.28;5013606;28;6799;-79
2022/06/23 00:42:40;;;;;;;;;;;;;;;21.43;42.69;100058.75;5024858;28;6815;-79
2022/06/23 00:45:12;;;;;;;;;;;;;;;21.39;42.47;100054.41;5028173;28;6819;-79
2022/06/23 00:48:10;;;;;;;;;;;;;;;21.38;42.62;100063.13;5013974;28;7046;-79
2022/06/23 00:50:49;;;;;;;;;;;;;;;21.36;42.71;100052.69;5014407;28;6812;-79
2022/06/23 00:53:30;;;;;;;;;;;;;;;21.39;42.41;100057.03;5011779;28;8704;-79
2022/06/23 00:56:31;;;;;;;;;;;;;;;21.41;42.27;100050.06;5005429;28;6820;-79
2022/06/23 00:59:11;;;;;;;;;;;;;;;21.44;41.87;100055.28;5015757;28;8877;-79
2022/06/23 01:01:49;;;;;;;;;;;;;;;21.51;41.63;100056.13;4994208;28;7368;-79
2022/06/23 01:05:02;;;;;;;;;;;;;;;21.56;41.54;100051.75;5014385;28;7235;-79
2022/06/23 01:08:03;;;;;;;;;;;;;;;21.57;41.74;100050.03;5013882;28;7896;-79
2022/06/23 01:10:55;;;;;;;;;;;;;;;21.59;41.45;100048.28;5018181;28;7198;-79
2022/06/23 01:13:39;;;;;;;;;;;;;;;21.65;41.23;100048.28;5016799;28;6832;-79
2022/06/23 01:16:20;;;;;;;;;;;;;;;21.72;40.68;100050.00;5001392;28;7162;-79
2022/06/23 01:18:53;;;;;;;;;;;;;;;21.82;40.29;100044.75;5010060;28;6887;-79
2022/06/23 01:21:41;;;;;;;;;;;;;;;21.94;40.22;100049.94;5018055;28;6812;-79
2022/06/23 01:25:01;;;;;;;;;;;;;;;22.05;40.08;100049.88;5002450;28;6982;-79
2022/06/23 01:27:44;;;;;;;;;;;;;;;22.13;40.35;100044.63;4997617;28;8701;-79
2022/06/23 01:30:13;;;;;;;;;;;;;;;22.19;40.39;100041.97;5022431;28;6969;-79
2022/06/23 01:33:17;;;;;;;;;;;;;;;22.28;39.91;100049.75;5001325;28;8577;-79
2022/06/23 01:36:04;;;;;;;;;;;;;;;22.38;39.40;100054.91;5019258;28;7177;-79
2022/06/23 01:39:03;;;;;;;;;;;;;;;22.48;39.50;100052.22;5015187;28;7215;-79
2022/06/23 01:41:41;;;;;;;;;;;;;;;22.55;38.93;100045.25;5015632;28;8011;-79
2022/06/23 01:44:18;;;;;;;;;;;;;;;22.63;38.91;100047.78;5019879;28;6804;-79
2022/06/23 01:46:52;;;;;;;;;;;;;;;22.70;38.59;100046.03;5018532;28;6819;-79
2022/06/23 01:49:26;;;;;;;;;;;;;;;22.79;38.76;100055.53;5001202;28;6803;-79
2022/06/23 01:52:15;;;;;;;;;;;;;;;22.86;38.45;100063.28;5014172;28;6992;-79
2022/06/23 01:54:42;;;;;;;;;;;;;;;22.94;38.42;100054.53;4989848;28;8387;-79
2022/06/23 01:57:41;;;;;;;;;;;;;;;22.98;38.36;100061.44;5012578;28;7502;-79
2022/06/23 02:00:24;;;;;;;;;;;;;;;23.04;37.97;100056.19;5017532;28;6816;-79
2022/06/23 02:03:03;;;;;;;;;;;;;;;23.07;37.72;100043.06;5009153;28;7011;-79
2022/06/23 02:05:45;;;;;;;;;;;;;;;23.10;37.67;100045.69;5018942;28;6811;-79
2022/06/23 02:08:55;;;;;;;;;;;;;;;23.11;37.93;100042.19;5015093;28;7215;-79
2022/06/23 02:11:38;;;;;;;;;;;;;;;23.11;37.93;100052.63;5019310;28;6998;-79
2022/06/23 02:14:11;;;;;;;;;;;;;;;23.09;37.56;100049.19;5016509;28;8384;-79
2022/06/23 02:17:01;;;;;;;;;;;;;;;23.10;37.66;100061.34;5024449;28;7158;-79
2022/06/23 02:19:45;;;;;;;;;;;;;;;23.11;38.29;100052.63;5018943;28;7257;-79
2022/06/23 02:22:26;;;;;;;;;;;;;;;23.11;38.03;100060.47;5006258;28;7264;-79
2022/06/23 02:25:12;;;;;;;;;;;;;;;23.10;38.68;100056.13;5018398;28;6808;-79
2022/06/23 02:27:54;;;;;;;;;;;;;;;23.07;39.06;100065.75;5000838;28;8438;-79
2022/06/23 02:30:39;;;;;;;;;;;;;;;23.01;39.40;100070.13;4999117;28;8702;-79
2022/06/23 02:33:23;;;;;;;;;;;;;;;22.91;39.84;100075.47;5017740;28;7254;-79
2022/06/23 02:36:17;;;;;;;;;;;;;;;22.77;40.13;100065.97;5009016;28;8525;-79
2022/06/23 02:38:53;;;;;;;;;;;;;;;22.67;39.91;100054.75;5016999;28;7294;-78
2022/06/23 02:41:32;;;;;;;;;;;;;;;22.60;40.30;100069.59;5025389;28;8181;-78
2022/06/23 02:44:28;;;;;;;;;;;;;;;22.56;40.37;100059.19;5008204;28;7840;-78
2022/06/23 02:47:36;;;;;;;;;;;;;;;22.47;40.29;100060.94;4987454;28;9689;-78
2022/06/23 02:50:31;;;;;;;;;;;;;;;22.36;40.88;100056.66;5020879;28;7241;-79
2022/06/23 02:53:13;;;;;;;;;;;;;;;22.28;40.92;100060.19;5016129;28;7040;-78
2022/06/23 02:56:28;;;;;;;;;;;;;;;22.22;40.95;100060.22;5012075;28;7223;-78
2022/06/23 02:59:27;;;;;;;;;;;;;;;22.15;41.12;100058.53;5010559;28;7440;-78
2022/06/23 03:01:55;;;;;;;;;;;;;;;22.12;41.58;100050.72;5011613;28;7206;-78
2022/06/23 03:04:34;;;;;;;;;;;;;;;22.09;41.02;100049.00;5010856;28;7192;-78
2022/06/23 03:07:32;;;;;;;;;;;;;;;22.06;41.58;100038.56;5011785;28;7005;-78
2022/06/23 03:10:06;;;;;;;;;;;;;;;22.01;41.70;100035.97;5017399;28;7210;-78
2022/06/23 03:12:55;;;;;;;;;;;;;;;21.97;42.23;100042.09;5026026;28;7855;-78
2022/06/23 03:15:46;;;;;;;;;;;;;;;21.90;42.28;100037.75;5005438;28;9011;-78
2022/06/23 03:18:54;;;;;;;;;;;;;;;21.79;42.83;100037.81;5012152;28;7611;-78
2022/06/23 03:21:49;;;;;;;;;;;;;;;21.71;43.24;100040.44;5018622;28;7001;-78
2022/06/23 03:24:58;;;;;;;;;;;;;;;21.67;43.86;100051.78;5014668;28;6976;-78
2022/06/23 03:27:37;;;;;;;;;;;;;;;21.63;44.02;100050.00;4999126;28;8821;-79
2022/06/23 03:30:21;;;;;;;;;;;;;;;21.63;43.88;100057.81;5013053;28;6878;-79
2022/06/23 03:33:32;;;;;;;;;;;;;;;21.62;44.31;100058.69;4996538;28;6812;-79
2022/06/23 03:36:25;;;;;;;;;;;;;;;21.61;44.53;100051.75;5022608;28;7164;-78
2022/06/23 03:42:30;;;;;;;;;;;;;;;21.65;44.75;100050.88;5009971;28;7178;-78
2022/06/23 03:45:24;;;;;;;;;;;;;;;21.68;44.89;100053.50;5009401;28;6831;-77
2022/06/23 03:48:23;;;;;;;;;;;;;;;21.68;45.35;100053.50;5011265;28;7222;-77
2022/06/23 03:51:02;;;;;;;;;;;;;;;21.72;44.91;100057.81;4992076;28;7015;-78
2022/06/23 03:53:56;;;;;;;;;;;;;;;21.74;44.95;100053.50;5009985;28;7207;-78
2022/06/23 03:56:28;;;;;;;;;;;;;;;21.78;45.36;100049.13;4999784;28;8769;-78
2022/06/23 03:59:07;;;;;;;;;;;;;;;21.83;45.12;100046.50;5009726;28;7279;-78
2022/06/23 04:01:49;;;;;;;;;;;;;;;21.87;45.32;100053.44;5004380;28;8482;-78
2022/06/23 04:04:19;;;;;;;;;;;;;;;21.91;45.61;100049.94;4981721;28;6793;-78
2022/06/23 04:06:47;;;;;;;;;;;;;;;21.96;45.41;100057.72;5006802;28;7322;-78
2022/06/23 04:09:25;;;;;;;;;;;;;;;22.00;45.30;100051.66;5012654;28;6982;-78
2022/06/23 04:12:13;;;;;;;;;;;;;;;22.05;45.48;100057.69;5011992;28;6819;-78
2022/06/23 04:14:55;;;;;;;;;;;;;;;22.10;45.30;100053.34;4997739;28;7118;-79
2022/06/23 04:17:35;;;;;;;;;;;;;;;22.19;45.47;100062.84;5002284;28;6967;-78
2022/06/23 04:20:40;;;;;;;;;;;;;;;22.38;46.04;100054.91;4997080;28;6815;-77
2022/06/23 04:23:37;;;;;;;;;;;;;;;22.62;45.96;100053.91;5009543;28;7672;-78
2022/06/23 04:26:14;;;;;;;;;;;;;;;22.89;46.13;100055.44;5013640;28;6819;-78
2022/06/23 04:28:56;;;;;;;;;;;;;;;23.20;45.30;100056.91;5005014;28;7298;-78
2022/06/23 04:31:40;;;;;;;;;;;;;;;23.51;45.18;100058.38;5014373;28;7211;-78
2022/06/23 04:34:27;;;;;;;;;;;;;;;23.80;44.54;100054.53;5011323;28;6896;-78
2022/06/23 04:36:54;;;;;;;;;;;;;;;24.10;43.83;100045.47;4998530;28;6984;-78
2022/06/23 04:39:41;;;;;;;;;;;;;;;24.41;43.23;100052.88;5002427;23;7179;-73
2022/06/23 04:42:19;;;;;;;;;;;;;;;24.72;43.44;100064.63;4993083;28;6898;-73
2022/06/23 04:44:52;;;;;;;;;;;;;;;25.00;43.13;100056.31;5028916;23;7919;-76
2022/06/23 04:47:27;;;;;;;;;;;;;;;25.29;43.02;100048.84;4993530;28;7205;-76
2022/06/23 04:50:00;;;;;;;;;;;;;;;25.60;42.69;100056.16;5007252;28;6823;-77
2022/06/23 04:52:38;;;;;;;;;;;;;;;25.88;42.07;100064.34;5019957;28;7143;-77
2022/06/23 04:55:18;;;;;;;;;;;;;;;26.16;41.60;100054.97;5024295;28;7235;-77
2022/06/23 04:57:59;;;;;;;;;;;;;;;26.43;41.45;100060.53;5018848;28;6800;-77
2022/06/23 05:00:43;;;;;;;;;;;;;;;26.67;40.93;100052.97;5019518;28;6811;-77
2022/06/23 05:03:44;;;;;;;;;;;;;;;26.91;40.55;100056.78;5021969;28;6815;-77
2022/06/23 05:06:37;;;;;;;;;;;;;;;27.11;39.96;100056.28;5005555;28;6963;-77
2022/06/23 05:09:38;;;;;;;;;;;;;;;27.37;40.17;100057.31;5004470;28;7241;-77
2022/06/23 05:12:20;;;;;;;;;;;;;;;27.63;39.94;100058.41;5037025;28;8106;-77
2022/06/23 05:15:08;;;;;;;;;;;;;;;27.87;39.64;100058.59;5022131;28;7010;-77
2022/06/23 05:17:45;;;;;;;;;;;;;;;28.10;38.44;100050.00;5020925;28;6815;-77
2022/06/23 05:20:24;;;;;;;;;;;;;;;28.31;38.41;100052.03;5019663;28;7222;-78
2022/06/23 05:22:50;;;;;;;;;;;;;;;28.48;38.07;100056.78;5002707;28;7002;-77
2022/06/23 05:25:16;;;;;;;;;;;;;;;28.63;37.90;100053.66;5020122;28;7258;-77
2022/06/23 05:27:47;;;;;;;;;;;;;;;28.79;37.36;100051.34;5026163;28;6975;-77
2022/06/23 05:30:31;;;;;;;;;;;;;;;28.92;37.58;100058.88;5016300;28;7208;-77
2022/06/23 05:33:12;;;;;;;;;;;;;;;29.01;37.52;100065.63;5004862;28;7189;-77
2022/06/23 05:35:49;;;;;;;;;;;;;;;29.11;37.21;100064.41;5019327;28;6819;-77
2022/06/23 05:38:30;;;;;;;;;;;;;;;29.25;37.82;100067.41;4998984;28;8548;-77
2022/06/23 05:41:17;;;;;;;;;;;;;;;29.44;37.22;100052.69;5016326;28;6820;-77
2022/06/23 05:43:43;;;;;;;;;;;;;;;29.58;37.07;100054.88;4999613;28;7093;-78
2022/06/23 05:46:23;;;;;;;;;;;;;;;29.75;36.90;100055.09;4997852;28;8397;-77
2022/06/23 05:49:02;;;;;;;;;;;;;;;29.92;37.24;100058.84;5017799;28;6808;-78
2022/06/23 05:51:55;;;;;;;;;;;;;;;30.12;36.45;100051.97;5019980;28;7671;-78
2022/06/23 05:54:47;;;;;;;;;;;;;;;30.29;36.65;100059.25;5012543;28;7942;-78
2022/06/23 05:57:27;;;;;;;;;;;;;;;30.47;36.93;100052.34;5018694;28;7109;-77
2022/06/23 06:00:17;;;;;;;;;;;;;;;30.59;36.23;100054.47;5003970;28;8466;-77
2022/06/23 06:03:06;;;;;;;;;;;;;;;30.58;35.53;100050.13;5017739;28;8537;-77
2022/06/23 06:05:38;;;;;;;;;;;;;;;30.45;35.99;100048.91;5014596;28;6816;-77
2022/06/23 06:08:14;;;;;;;;;;;;;;;30.31;36.29;100057.41;5017826;28;6893;-77
2022/06/23 06:10:41;;;;;;;;;;;;;;;30.12;35.87;100055.50;5001035;28;6804;-78
2022/06/23 06:13:18;;;;;;;;;;;;;;;29.92;35.78;100062.38;5018498;28;7222;-78
2022/06/23 06:15:52;;;;;;;;;;;;;;;29.69;36.38;100057.97;5016438;28;6808;-78
2022/06/23 06:18:31;;;;;;;;;;;;;;;29.48;36.28;100057.84;4997754;28;8738;-78
2022/06/23 06:21:02;;;;;;;;;;;;;;;29.25;36.83;100066.53;5012393;28;6816;-77
2022/06/23 06:23:49;;;;;;;;;;;;;;;29.03;37.42;100063.78;5033163;28;6804;-77
2022/06/23 06:26:21;;;;;;;;;;;;;;;28.80;37.35;100055.72;5034493;28;6985;-77
2022/06/23 06:28:46;;;;;;;;;;;;;;;28.64;38.18;100060.63;5002975;28;6992;-77
2022/06/23 06:31:29;;;;;;;;;;;;;;;28.50;38.96;100060.25;5017664;28;6796;-77
2022/06/23 06:34:15;;;;;;;;;;;;;;;28.38;38.57;100053.59;5034021;28;6988;-77
2022/06/23 06:36:52;;;;;;;;;;;;;;;28.27;38.93;100051.28;5034989;28;6796;-77
2022/06/23 06:39:38;;;;;;;;;;;;;;;28.19;39.66;100056.78;5023270;28;8802;-77
2022/06/23 06:42:12;;;;;;;;;;;;;;;28.13;39.79;100049.91;5034067;28;6896;-77
2022/06/23 06:44:48;;;;;;;;;;;;;;;28.12;40.28;100050.81;5023365;28;7223;-77
2022/06/23 06:47:18;;;;;;;;;;;;;;;28.10;40.65;100047.38;4998445;28;6995;-77
2022/06/23 06:49:46;;;;;;;;;;;;;;;28.12;41.17;100049.94;5016801;28;7631;-77
2022/06/23 06:52:12;;;;;;;;;;;;;;;28.17;41.03;100049.81;5034676;28;6920;-77
2022/06/23 06:55:00;;;;;;;;;;;;;;;28.27;41.59;100049.50;5019658;28;8486;-78
2022/06/23 06:57:36;;;;;;;;;;;;;;;28.45;41.35;100049.84;5016230;28;6888;-77
2022/06/23 07:00:07;;;;;;;;;;;;;;;28.75;41.93;100048.88;5035290;28;6999;-77
2022/06/23 07:02:40;;;;;;;;;;;;;;;29.14;41.12;100045.81;5027662;28;6808;-77
2022/06/23 07:05:40;;;;;;;;;;;;;;;29.70;41.10;100040.31;5024570;28;6988;-77
2022/06/23 07:08:37;;;;;;;;;;;;;;;30.29;40.07;100038.94;5030063;28;7974;-77
2022/06/23 07:11:27;;;;;;;;;;;;;;;30.80;38.92;100032.53;5012280;28;8736;-78
2022/06/23 07:14:23;;;;;;;;;;;;;;;31.30;38.66;100034.78;5034376;28;6807;-77
2022/06/23 07:17:04;;;;;;;;;;;;;;;31.76;38.47;100024.81;5031431;28;7179;-77
2022/06/23 07:19:58;;;;;;;;;;;;;;;32.23;37.39;100029.66;5032875;28;7152;-77
2022/06/23 07:22:46;;;;;;;;;;;;;;;32.67;36.72;100030.22;5015977;28;6962;-77
2022/06/23 07:25:23;;;;;;;;;;;;;;;33.05;36.45;100030.06;5033402;28;6812;-77
2022/06/23 07:28:28;;;;;;;;;;;;;;;33.45;35.47;100032.38;5019643;28;7878;-78
2022/06/23 07:31:06;;;;;;;;;;;;;;;33.80;35.25;100036.72;5018064;28;7307;-78
2022/06/23 07:33:53;;;;;;;;;;;;;;;34.18;35.26;100031.09;5020468;28;7163;-78
2022/06/23 07:36:33;;;;;;;;;;;;;;;34.54;34.55;100036.22;5033053;28;8439;-78
2022/06/23 07:39:22;;;;;;;;;;;;;;;34.95;33.88;100029.38;4997640;28;8364;-78
2022/06/23 07:42:16;;;;;;;;;;;;;;;35.24;32.76;100034.75;5017293;28;7218;-78
2022/06/23 07:44:58;;;;;;;;;;;;;;;35.43;32.75;100032.66;5017354;28;6908;-78
2022/06/23 07:47:24;;;;;;;;;;;;;;;35.65;33.21;100020.66;5036775;28;6994;-78
2022/06/23 07:49:50;;;;;;;;;;;;;;;35.89;32.89;100028.06;5021470;28;7128;-78
2022/06/23 07:52:19;;;;;;;;;;;;;;;36.15;32.25;100036.19;5003829;28;8039;-78
2022/06/23 07:54:49;;;;;;;;;;;;;;;36.36;31.87;100031.25;5021485;28;7271;-78
2022/06/23 07:57:16;;;;;;;;;;;;;;;36.57;31.44;100035.28;5037614;28;7193;-79
2022/06/23 08:00:02;;;;;;;;;;;;;;;36.77;30.92;100036.56;4990331;28;7066;-78
2022/06/23 08:03:00;;;;;;;;;;;;;;;37.02;30.75;100040.22;5004168;28;6804;-78
2022/06/23 08:05:55;;;;;;;;;;;;;;;37.16;30.23;100033.97;5030663;28;6874;-78
2022/06/23 08:08:28;;;;;;;;;;;;;;;37.26;30.56;100036.81;5008173;28;7158;-78
2022/06/23 08:14:04;;;;;;;;;;;;;;;37.64;29.77;100030.59;5021011;28;7000;-78
2022/06/23 08:16:50;;;;;;;;;;;;;;;37.84;29.38;100025.59;5007448;28;7011;-78
2022/06/23 08:19:32;;;;;;;;;;;;;;;38.00;29.48;100031.53;5020669;28;6974;-78
2022/06/23 08:22:27;;;;;;;;;;;;;;;38.20;29.05;100029.22;5020464;28;8983;-78
2022/06/23 08:24:59;;;;;;;;;;;;;;;38.31;28.68;100029.28;5035150;28;6808;-78
2022/06/23 08:27:28;;;;;;;;;;;;;;;38.43;28.51;100032.00;5037041;28;7053;-78
2022/06/23 08:30:08;;;;;;;;;;;;;;;38.50;28.14;100025.25;5020749;28;7338;-78
2022/06/23 08:32:39;;;;;;;;;;;;;;;38.57;27.92;100023.81;4987167;28;6977;-78
2022/06/23 08:35:14;;;;;;;;;;;;;;;38.73;28.28;100022.63;5037305;28;6891;-78
2022/06/23 08:38:07;;;;;;;;;;;;;;;39.01;27.99;100020.50;4995388;28;8501;-78
2022/06/23 08:41:17;;;;;;;;;;;;;;;39.37;27.54;100023.06;5037929;28;6795;-78
2022/06/23 08:44:24;;;;;;;;;;;;;;;39.63;27.18;100022.81;5020410;28;9015;-78
2022/06/23 08:47:16;;;;;;;;;;;;;;;39.92;26.89;100017.78;5031241;28;7186;-78
2022/06/23 08:50:13;;;;;;;;;;;;;;;40.15;26.65;100027.59;5001984;28;7105;-78
2022/06/23 08:53:02;;;;;;;;;;;;;;;40.36;26.66;100024.94;5034209;28;6974;-78
2022/06/23 08:55:53;;;;;;;;;;;;;;;40.40;26.06;100029.94;5018466;28;8389;-78
2022/06/23 08:58:34;;;;;;;;;;;;;;;40.43;26.09;100033.34;5038314;28;6815;-78
2022/06/23 09:01:36;;;;;;;;;;;;;;;40.54;26.00;100025.25;5016468;28;7381;-78
2022/06/23 09:04:09;;;;;;;;;;;;;;;40.68;25.82;100027.56;5019001;28;6970;-78
2022/06/23 09:06:47;;;;;;;;;;;;;;;40.73;25.42;100018.28;5018032;28;7220;-78
2022/06/23 09:10:01;;;;;;;;;;;;;;;40.85;25.50;100032.50;5017044;28;6861;-77
2022/06/23 09:13:08;;;;;;;;;;;;;;;40.98;25.09;100025.09;5014001;28;7004;-77
2022/06/23 09:16:00;;;;;;;;;;;;;;;41.16;25.13;100025.31;5021248;28;6964;-77
2022/06/23 09:18:52;;;;;;;;;;;;;;;41.44;25.07;100014.81;5016127;28;6890;-77
2022/06/23 09:22:09;;;;;;;;;;;;;;;41.72;24.68;100015.06;5032919;28;7234;-77
2022/06/23 09:24:56;;;;;;;;;;;;;;;41.97;24.50;100014.66;5020188;28;6815;-77
2022/06/23 09:27:34;;;;;;;;;;;;;;;42.18;24.18;100010.03;5015055;28;7376;-75
2022/06/23 09:30:20;;;;;;;;;;;;;;;42.53;24.03;99996.97;5031516;28;6815;-75
2022/06/23 09:33:20;;;;;;;;;;;;;;;42.91;23.57;100006.94;5032348;28;6836;-75
2022/06/23 09:36:07;;;;;;;;;;;;;;;43.25;23.16;100001.84;5018113;28;7261;-75
2022/06/23 09:38:38;;;;;;;;;;;;;;;43.60;22.77;99991.31;5019247;28;7252;-75
2022/06/23 09:41:47;;;;;;;;;;;;;;;43.93;22.37;99988.09;5014656;28;6974;-75
2022/06/23 09:44:31;;;;;;;;;;;;;;;44.36;22.25;99985.63;5016321;28;7857;-75
2022/06/23 09:47:24;;;;;;;;;;;;;;;44.66;21.82;99984.31;5014158;28;6966;-74
2022/06/23 09:50:32;;;;;;;;;;;;;;;44.99;22.00;99983.69;5016443;28;6824;-75
2022/06/23 09:53:25;;;;;;;;;;;;;;;45.41;21.24;99987.41;5020462;28;6883;-75
2022/06/23 09:56:15;;;;;;;;;;;;;;;45.59;20.46;99978.31;5020371;28;6811;-75
2022/06/23 09:58:54;;;;;;;;;;;;;;;45.46;20.43;99979.63;5033872;28;6816;-75
2022/06/23 10:01:48;;;;;;;;;;;;;;;44.97;20.63;99990.22;5020054;28;7026;-75
2022/06/23 10:04:28;;;;;;;;;;;;;;;44.13;21.19;99981.53;5002488;28;6974;-74
2022/06/23 10:07:31;;;;;;;;;;;;;;;43.51;21.80;99987.69;5015282;28;6792;-74
2022/06/23 10:10:29;;;;;;;;;;;;;;;43.22;21.96;99990.50;5015179;28;7004;-75
2022/06/23 10:13:48;;;;;;;;;;;;;;;42.42;22.53;99991.72;5015822;28;6827;-74
2022/06/23 10:17:09;;;;;;;;;;;;;;;42.34;23.57;99987.06;5033479;28;6812;-74
2022/06/23 10:20:09;;;;;;;;;;;;;;;42.60;23.37;99987.31;4985497;28;8314;-74
2022/06/23 10:23:05;;;;;;;;;;;;;;;42.95;22.51;99984.13;5032520;28;7042;-74
2022/06/23 10:25:37;;;;;;;;;;;;;;;43.35;22.27;99984.78;5017803;28;6816;-74
2022/06/23 10:28:59;;;;;;;;;;;;;;;43.86;21.79;99979.78;5023347;28;7061;-75
2022/06/23 10:31:59;;;;;;;;;;;;;;;44.21;21.20;99975.41;5018524;28;6827;-75
2022/06/23 10:35:07;;;;;;;;;;;;;;;44.51;20.78;99975.94;5017795;28;7261;-75
2022/06/23 10:37:47;;;;;;;;;;;;;;;44.72;20.53;99971.16;5025390;28;6977;-75
2022/06/23 10:40:31;;;;;;;;;;;;;;;44.85;20.87;99970.72;5032608;28;6824;-75
2022/06/23 10:43:18;;;;;;;;;;;;;;;45.02;20.64;99971.72;5015597;28;6820;-75
2022/06/23 10:45:55;;;;;;;;;;;;;;;45.21;20.43;99971.44;4999658;28;7229;-75
2022/06/23 10:48:42;;;;;;;;;;;;;;;45.56;19.87;99965.09;5017269;28;6823;-76
2022/06/23 10:51:38;;;;;;;;;;;;;;;45.85;19.66;99961.97;5031781;28;6812;-75
2022/06/23 10:54:58;;;;;;;;;;;;;;;45.92;19.33;99959.44;5034969;28;6831;-75
2022/06/23 10:58:10;;;;;;;;;;;;;;;45.95;19.32;99959.06;5015950;28;8135;-75
2022/06/23 11:01:08;;;;;;;;;;;;;;;46.10;18.57;99953.81;5019138;28;6831;-75
2022/06/23 11:03:55;;;;;;;;;;;;;;;45.91;18.74;99955.03;5018479;28;6831;-75
2022/06/23 11:07:07;;;;;;;;;;;;;;;46.01;19.26;99944.88;5017619;28;8027;-77
2022/06/23 11:09:52;;;;;;;;;;;;;;;46.37;18.85;99953.66;5030631;28;6828;-75
2022/06/23 11:12:55;;;;;;;;;;;;;;;46.57;18.65;99952.28;5035694;28;6911;-75
2022/06/23 11:15:44;;;;;;;;;;;;;;;46.82;18.55;99952.19;5031202;28;7112;-75
2022/06/23 11:18:37;;;;;;;;;;;;;;;47.11;18.32;99945.28;4996911;28;7029;-75
2022/06/23 11:21:50;;;;;;;;;;;;;;;46.97;17.80;99948.78;5017249;28;6899;-75
2022/06/23 11:24:50;;;;;;;;;;;;;;;46.72;17.88;99938.84;5017382;28;7160;-75
2022/06/23 11:27:58;;;;;;;;;;;;;;;46.64;17.28;99943.44;5017375;28;6994;-75
2022/06/23 11:30:59;;;;;;;;;;;;;;;46.35;17.08;99940.28;5015634;28;6816;-75
2022/06/23 11:34:00;;;;;;;;;;;;;;;45.93;17.31;99938.63;4993302;28;6861;-75
2022/06/23 11:36:55;;;;;;;;;;;;;;;45.45;17.66;99934.66;5027934;28;7077;-75
2022/06/23 11:40:21;;;;;;;;;;;;;;;45.33;17.62;99930.56;5035690;28;6819;-76
2022/06/23 11:43:16;;;;;;;;;;;;;;;45.27;17.89;99937.47;5019563;28;7005;-75
2022/06/23 11:46:19;;;;;;;;;;;;;;;45.35;17.63;99929.41;5031819;28;7035;-76
2022/06/23 11:49:16;;;;;;;;;;;;;;;45.31;17.27;99928.00;5018596;28;8072;-76
2022/06/23 11:52:21;;;;;;;;;;;;;;;45.18;17.30;99927.66;5014508;28;6823;-76
2022/06/23 11:54:59;;;;;;;;;;;;;;;45.19;17.19;99918.53;5017506;28;7070;-75
2022/06/23 11:58:39;;;;;;;;;;;;;;;45.17;17.38;99918.69;5033760;28;6804;-75
2022/06/23 12:01:20;;;;;;;;;;;;;;;45.53;17.77;99908.66;5017418;28;7199;-75
2022/06/23 12:04:17;;;;;;;;;;;;;;;46.08;17.70;99912.53;5029455;28;6891;-75
2022/06/23 12:07:13;;;;;;;;;;;;;;;46.60;17.57;99907.72;5011662;28;7056;-75
2022/06/23 12:10:21;;;;;;;;;;;;;;;46.82;16.85;99899.84;5030574;28;6812;-75
2022/06/23 12:12:51;;;;;;;;;;;;;;;46.38;16.94;99915.56;5018696;28;6812;-75
2022/06/23 12:15:24;;;;;;;;;;;;;;;46.21;16.96;99908.47;4987250;28;8403;-75
2022/06/23 12:18:02;;;;;;;;;;;;;;;45.98;17.03;99901.91;5013090;28;6994;-75
2022/06/23 12:21:12;;;;;;;;;;;;;;;45.71;17.29;99901.22;5031912;28;7202;-75
2022/06/23 12:23:50;;;;;;;;;;;;;;;45.47;17.36;99893.94;5009247;28;6815;-75
2022/06/23 12:26:23;;;;;;;;;;;;;;;45.51;17.54;99895.28;5015880;28;8711;-75
2022/06/23 12:29:12;;;;;;;;;;;;;;;45.62;17.22;99902.22;5010721;28;6938;-75
2022/06/23 12:32:06;;;;;;;;;;;;;;;45.66;17.42;99892.75;5016639;28;6982;-75
2022/06/23 12:34:46;;;;;;;;;;;;;;;45.90;17.50;99888.38;5021456;28;6831;-75
2022/06/23 12:37:33;;;;;;;;;;;;;;;46.18;17.08;99890.75;5009617;28;8087;-75
2022/06/23 12:40:18;;;;;;;;;;;;;;;46.41;16.66;99885.44;5019169;28;8157;-75
2022/06/23 12:42:55;;;;;;;;;;;;;;;46.49;16.95;99880.97;5029802;28;7120;-75
2022/06/23 12:45:52;;;;;;;;;;;;;;;46.30;16.35;99875.81;5015446;28;7214;-75
2022/06/23 12:48:57;;;;;;;;;;;;;;;45.25;16.77;99879.16;5009661;28;6819;-75
2022/06/23 12:52:11;;;;;;;;;;;;;;;44.03;17.95;99888.19;5014592;28;7046;-76
2022/06/23 12:54:58;;;;;;;;;;;;;;;43.01;18.94;99876.59;5014995;28;6823;-76
2022/06/23 12:57:51;;;;;;;;;;;;;;;42.96;19.13;99869.97;5017976;28;7129;-76
2022/06/23 13:00:59;;;;;;;;;;;;;;;43.34;19.01;99869.84;5016202;28;6815;-76
2022/06/23 13:04:00;;;;;;;;;;;;;;;43.91;18.67;99860.59;5017481;28;6820;-76
2022/06/23 13:07:02;;;;;;;;;;;;;;;44.49;18.81;99866.38;5017452;28;6832;-77
2022/06/23 13:09:49;;;;;;;;;;;;;;;44.99;18.28;99848.53;5012906;28;7180;-77
2022/06/23 13:12:30;;;;;;;;;;;;;;;45.42;18.57;99847.59;5003946;28;6831;-76
2022/06/23 13:15:23;;;;;;;;;;;;;;;45.83;18.18;99846.78;5031687;28;7252;-76
2022/06/23 13:17:56;;;;;;;;;;;;;;;46.20;17.63;99842.66;5007152;28;7227;-76
2022/06/23 13:21:14;;;;;;;;;;;;;;;46.51;17.58;99839.16;5027271;28;8406;-76
2022/06/23 13:23:59;;;;;;;;;;;;;;;46.76;17.34;99841.78;5035579;28;8314;-76
2022/06/23 13:26:36;;;;;;;;;;;;;;;46.51;16.85;99841.88;5019888;28;6912;-76
2022/06/23 13:29:41;;;;;;;;;;;;;;;45.85;17.49;99834.78;5026852;28;7031;-76
2022/06/23 13:32:32;;;;;;;;;;;;;;;45.68;17.67;99831.19;5032066;28;7155;-77
2022/06/23 13:35:18;;;;;;;;;;;;;;;45.72;17.78;99824.44;5036954;28;8819;-76
2022/06/23 13:38:04;;;;;;;;;;;;;;;45.94;17.85;99837.47;5013248;28;7000;-76
2022/06/23 13:40:54;;;;;;;;;;;;;;;46.03;17.53;99828.31;5033544;28;7425;-76
2022/06/23 13:43:35;;;;;;;;;;;;;;;46.02;17.61;99837.44;5012573;28;7229;-76
2022/06/23 13:46:11;;;;;;;;;;;;;;;45.93;17.27;99828.50;5017847;28;7206;-76
2022/06/23 13:49:10;;;;;;;;;;;;;;;45.93;17.06;99823.06;5017346;28;8696;-77
2022/06/23 13:52:00;;;;;;;;;;;;;;;45.72;17.17;99824.44;5019278;28;6908;-76
2022/06/23 13:54:45;;;;;;;;;;;;;;;45.70;17.23;99818.38;5030318;28;6879;-77
2022/06/23 13:57:40;;;;;;;;;;;;;;;45.44;17.51;99813.97;4999255;28;7010;-76
2022/06/23 14:00:25;;;;;;;;;;;;;;;44.95;17.63;99814.72;4997921;28;6962;-76
2022/06/23 14:03:33;;;;;;;;;;;;;;;44.38;17.95;99825.16;5017661;28;7254;-77
2022/06/23 14:06:10;;;;;;;;;;;;;;;43.79;18.06;99814.13;5012960;28;7237;-76
2022/06/23 14:09:03;;;;;;;;;;;;;;;43.11;18.75;99811.00;5011904;28;6808;-76
2022/06/23 14:11:36;;;;;;;;;;;;;;;42.29;19.18;99815.22;5033544;28;7417;-77
2022/06/23 14:14:25;;;;;;;;;;;;;;;41.63;19.80;99809.69;5013117;28;6853;-77
2022/06/23 14:17:02;;;;;;;;;;;;;;;41.00;20.84;99808.22;5013499;28;8489;-76
2022/06/23 14:19:51;;;;;;;;;;;;;;;40.57;20.93;99806.69;5030200;28;6963;-76
2022/06/23 14:22:52;;;;;;;;;;;;;;;40.17;21.35;99806.44;5031791;28;6811;-77
2022/06/23 14:25:44;;;;;;;;;;;;;;;39.82;21.92;99795.06;5007921;28;6808;-76
2022/06/23 14:28:32;;;;;;;;;;;;;;;39.53;22.49;99801.09;5014981;28;7050;-77
2022/06/23 14:31:24;;;;;;;;;;;;;;;39.29;22.80;99799.47;5023565;28;7414;-76
2022/06/23 14:34:44;;;;;;;;;;;;;;;39.10;23.76;99793.94;5032030;28;7677;-76
2022/06/23 14:37:15;;;;;;;;;;;;;;;38.93;23.83;99785.41;5010730;28;8455;-77
2022/06/23 14:39:55;;;;;;;;;;;;;;;38.87;23.37;99778.72;5033338;28;6983;-77
2022/06/23 14:42:39;;;;;;;;;;;;;;;38.77;23.42;99785.81;5028476;28;6795;-77